sensor_id;sensor_type;location;lat;lon;timestamp;pressure;altitude;pressure_sealevel;temperature;humidity
6204;BME280;3135;42.602;23.468;2023-07-31T00:01:42;92484.94;;;19.84;100.00
6204;BME280;3135;42.602;23.468;2023-07-31T00:04:08;92481.91;;;19.86;100.00
6204;BME280;3135;42.602;23.468;2023-07-31T00:06:33;92475.84;;;19.92;100.00
6204;BME280;3135;42.602;23.468;2023-07-31T00:08:58;92470.25;;;19.85;100.00
6204;BME280;3135;42.602;23.468;2023-07-31T00:11:26;92479.78;;;19.95;100.00
6204;BME280;3135;42.602;23.468;2023-07-31T00:13:53;92479.34;;;19.93;100.00
6204;BME280;3135;42.602;23.468;2023-07-31T00:16:19;92473.53;;;19.95;100.00
6204;BME280;3135;42.602;23.468;2023-07-31T00:18:44;92468.06;;;19.91;100.00
6204;BME280;3135;42.602;23.468;2023-07-31T00:21:09;92458.97;;;19.83;100.00
6204;BME280;3135;42.602;23.468;2023-07-31T00:23:35;92478.38;;;19.85;100.00
6204;BME280;3135;42.602;23.468;2023-07-31T00:26:00;92460.81;;;19.79;100.00
6204;BME280;3135;42.602;23.468;2023-07-31T00:28:26;92467.75;;;19.77;100.00
6204;BME280;3135;42.602;23.468;2023-07-31T00:30:52;92468.34;;;19.86;100.00
6204;BME280;3135;42.602;23.468;2023-07-31T00:33:18;92476.00;;;20.00;100.00
6204;BME280;3135;42.602;23.468;2023-07-31T00:35:43;92472.22;;;20.04;100.00
6204;BME280;3135;42.602;23.468;2023-07-31T00:38:08;92466.44;;;20.06;100.00
6204;BME280;3135;42.602;23.468;2023-07-31T00:40:37;92448.31;;;19.90;100.00
6204;BME280;3135;42.602;23.468;2023-07-31T00:43:03;92444.06;;;19.93;100.00
6204;BME280;3135;42.602;23.468;2023-07-31T00:45:29;92457.72;;;19.97;100.00
6204;BME280;3135;42.602;23.468;2023-07-31T00:47:54;92446.78;;;19.93;100.00
6204;BME280;3135;42.602;23.468;2023-07-31T00:50:22;92432.72;;;19.87;100.00
6204;BME280;3135;42.602;23.468;2023-07-31T00:52:47;92420.03;;;19.91;100.00
6204;BME280;3135;42.602;23.468;2023-07-31T00:55:13;92425.00;;;19.89;100.00
6204;BME280;3135;42.602;23.468;2023-07-31T00:57:41;92419.53;;;19.86;100.00
6204;BME280;3135;42.602;23.468;2023-07-31T01:00:07;92429.38;;;19.94;100.00
6204;BME280;3135;42.602;23.468;2023-07-31T01:02:33;92429.59;;;20.05;100.00
6204;BME280;3135;42.602;23.468;2023-07-31T01:04:59;92431.78;;;19.99;100.00
6204;BME280;3135;42.602;23.468;2023-07-31T01:07:42;92452.00;;;19.82;100.00
6204;BME280;3135;42.602;23.468;2023-07-31T01:10:21;92432.22;;;19.62;100.00
6204;BME280;3135;42.602;23.468;2023-07-31T01:12:50;92439.44;;;19.58;100.00
6204;BME280;3135;42.602;23.468;2023-07-31T01:15:16;92438.06;;;19.49;100.00
6204;BME280;3135;42.602;23.468;2023-07-31T01:17:43;92426.84;;;19.50;100.00
6204;BME280;3135;42.602;23.468;2023-07-31T01:20:21;92433.50;;;19.53;100.00
6204;BME280;3135;42.602;23.468;2023-07-31T01:23:24;92437.25;;;19.64;100.00
6204;BME280;3135;42.602;23.468;2023-07-31T01:26:00;92425.19;;;19.61;100.00
6204;BME280;3135;42.602;23.468;2023-07-31T01:28:44;92427.19;;;19.64;100.00
6204;BME280;3135;42.602;23.468;2023-07-31T01:31:18;92411.75;;;19.49;100.00
6204;BME280;3135;42.602;23.468;2023-07-31T01:33:45;92421.53;;;19.54;100.00
6204;BME280;3135;42.602;23.468;2023-07-31T01:36:11;92412.53;;;19.50;100.00
6204;BME280;3135;42.602;23.468;2023-07-31T01:38:37;92419.50;;;19.66;100.00
6204;BME280;3135;42.602;23.468;2023-07-31T01:41:02;92412.53;;;19.50;100.00
6204;BME280;3135;42.602;23.468;2023-07-31T01:43:28;92426.91;;;19.34;100.00
6204;BME280;3135;42.602;23.468;2023-07-31T01:45:53;92411.78;;;19.18;100.00
6204;BME280;3135;42.602;23.468;2023-07-31T01:48:19;92414.34;;;18.95;100.00
6204;BME280;3135;42.602;23.468;2023-07-31T01:50:44;92405.44;;;18.94;100.00
6204;BME280;3135;42.602;23.468;2023-07-31T01:53:09;92393.38;;;18.76;100.00
6204;BME280;3135;42.602;23.468;2023-07-31T01:55:37;92408.50;;;18.93;100.00
6204;BME280;3135;42.602;23.468;2023-07-31T01:58:02;92398.72;;;18.72;100.00
6204;BME280;3135;42.602;23.468;2023-07-31T02:00:28;92404.13;;;18.72;100.00
6204;BME280;3135;42.602;23.468;2023-07-31T02:02:53;92410.56;;;18.68;100.00
6204;BME280;3135;42.602;23.468;2023-07-31T02:05:19;92427.94;;;18.67;100.00
6204;BME280;3135;42.602;23.468;2023-07-31T02:07:44;92426.25;;;18.62;100.00
6204;BME280;3135;42.602;23.468;2023-07-31T02:10:09;92430.22;;;18.64;100.00
6204;BME280;3135;42.602;23.468;2023-07-31T02:12:35;92418.66;;;18.36;100.00
6204;BME280;3135;42.602;23.468;2023-07-31T02:15:00;92432.88;;;18.49;100.00
6204;BME280;3135;42.602;23.468;2023-07-31T02:17:26;92425.00;;;18.44;100.00
6204;BME280;3135;42.602;23.468;2023-07-31T02:19:51;92427.41;;;18.45;100.00
6204;BME280;3135;42.602;23.468;2023-07-31T02:22:17;92427.28;;;18.42;100.00
6204;BME280;3135;42.602;23.468;2023-07-31T02:24:43;92435.84;;;18.44;100.00
6204;BME280;3135;42.602;23.468;2023-07-31T02:27:08;92424.47;;;18.22;100.00
6204;BME280;3135;42.602;23.468;2023-07-31T02:29:34;92449.53;;;18.35;100.00
6204;BME280;3135;42.602;23.468;2023-07-31T02:31:59;92438.63;;;18.31;100.00
6204;BME280;3135;42.602;23.468;2023-07-31T02:34:24;92440.38;;;18.39;100.00
6204;BME280;3135;42.602;23.468;2023-07-31T02:36:50;92440.47;;;18.43;100.00
6204;BME280;3135;42.602;23.468;2023-07-31T02:39:15;92433.38;;;18.23;100.00
6204;BME280;3135;42.602;23.468;2023-07-31T02:41:41;92448.00;;;18.50;100.00
6204;BME280;3135;42.602;23.468;2023-07-31T02:44:06;92447.66;;;18.67;100.00
6204;BME280;3135;42.602;23.468;2023-07-31T02:46:31;92431.00;;;18.65;100.00
6204;BME280;3135;42.602;23.468;2023-07-31T02:48:57;92449.81;;;18.89;100.00
6204;BME280;3135;42.602;23.468;2023-07-31T02:51:22;92418.22;;;18.78;100.00
6204;BME280;3135;42.602;23.468;2023-07-31T02:53:48;92437.78;;;18.87;100.00
6204;BME280;3135;42.602;23.468;2023-07-31T02:56:13;92434.44;;;18.94;100.00
6204;BME280;3135;42.602;23.468;2023-07-31T02:58:39;92445.25;;;19.09;100.00
6204;BME280;3135;42.602;23.468;2023-07-31T03:01:04;92434.03;;;18.92;100.00
6204;BME280;3135;42.602;23.468;2023-07-31T03:03:30;92436.53;;;19.00;100.00
6204;BME280;3135;42.602;23.468;2023-07-31T03:05:56;92446.06;;;18.94;100.00
6204;BME280;3135;42.602;23.468;2023-07-31T03:08:21;92448.84;;;18.98;100.00
6204;BME280;3135;42.602;23.468;2023-07-31T03:10:46;92456.47;;;18.92;100.00
6204;BME280;3135;42.602;23.468;2023-07-31T03:13:12;92447.97;;;18.78;100.00
6204;BME280;3135;42.602;23.468;2023-07-31T03:15:37;92449.19;;;18.80;100.00
6204;BME280;3135;42.602;23.468;2023-07-31T03:18:03;92455.69;;;18.92;100.00
6204;BME280;3135;42.602;23.468;2023-07-31T03:20:28;92456.72;;;18.87;100.00
6204;BME280;3135;42.602;23.468;2023-07-31T03:22:53;92457.41;;;19.00;100.00
6204;BME280;3135;42.602;23.468;2023-07-31T03:25:19;92455.84;;;18.99;100.00
6204;BME280;3135;42.602;23.468;2023-07-31T03:27:44;92454.09;;;19.06;100.00
6204;BME280;3135;42.602;23.468;2023-07-31T03:30:10;92446.50;;;19.12;100.00
6204;BME280;3135;42.602;23.468;2023-07-31T03:32:35;92464.50;;;19.20;100.00
6204;BME280;3135;42.602;23.468;2023-07-31T03:35:01;92464.31;;;18.97;100.00
6204;BME280;3135;42.602;23.468;2023-07-31T03:37:26;92457.69;;;18.67;100.00
6204;BME280;3135;42.602;23.468;2023-07-31T03:39:52;92470.75;;;18.77;100.00
6204;BME280;3135;42.602;23.468;2023-07-31T03:42:17;92466.84;;;18.74;100.00
6204;BME280;3135;42.602;23.468;2023-07-31T03:44:42;92476.34;;;18.84;100.00
6204;BME280;3135;42.602;23.468;2023-07-31T03:47:08;92473.56;;;18.80;100.00
6204;BME280;3135;42.602;23.468;2023-07-31T03:49:33;92465.69;;;18.91;100.00
6204;BME280;3135;42.602;23.468;2023-07-31T03:51:59;92463.28;;;19.02;100.00
6204;BME280;3135;42.602;23.468;2023-07-31T03:54:24;92471.56;;;19.09;100.00
6204;BME280;3135;42.602;23.468;2023-07-31T03:56:50;92477.78;;;19.25;100.00
6204;BME280;3135;42.602;23.468;2023-07-31T03:59:15;92478.03;;;19.20;100.00
6204;BME280;3135;42.602;23.468;2023-07-31T04:01:40;92464.66;;;19.11;100.00
6204;BME280;3135;42.602;23.468;2023-07-31T04:04:06;92469.03;;;19.00;100.00
6204;BME280;3135;42.602;23.468;2023-07-31T04:06:31;92481.78;;;19.00;100.00
6204;BME280;3135;42.602;23.468;2023-07-31T04:08:57;92489.91;;;19.00;100.00
6204;BME280;3135;42.602;23.468;2023-07-31T04:11:22;92493.22;;;18.93;100.00
6204;BME280;3135;42.602;23.468;2023-07-31T04:13:47;92486.06;;;18.85;100.00
6204;BME280;3135;42.602;23.468;2023-07-31T04:16:13;92490.25;;;18.82;100.00
6204;BME280;3135;42.602;23.468;2023-07-31T04:18:38;92491.41;;;18.97;100.00
6204;BME280;3135;42.602;23.468;2023-07-31T04:21:04;92495.31;;;19.00;100.00
6204;BME280;3135;42.602;23.468;2023-07-31T04:23:29;92501.63;;;19.04;100.00
6204;BME280;3135;42.602;23.468;2023-07-31T04:25:55;92490.88;;;18.92;100.00
6204;BME280;3135;42.602;23.468;2023-07-31T04:28:21;92487.16;;;18.68;100.00
6204;BME280;3135;42.602;23.468;2023-07-31T04:30:46;92493.13;;;18.74;100.00
6204;BME280;3135;42.602;23.468;2023-07-31T04:33:12;92493.91;;;18.74;100.00
6204;BME280;3135;42.602;23.468;2023-07-31T04:35:37;92505.97;;;18.93;100.00
6204;BME280;3135;42.602;23.468;2023-07-31T04:38:03;92494.69;;;18.90;100.00
6204;BME280;3135;42.602;23.468;2023-07-31T04:40:28;92484.13;;;18.85;100.00
6204;BME280;3135;42.602;23.468;2023-07-31T04:42:53;92491.91;;;18.87;100.00
6204;BME280;3135;42.602;23.468;2023-07-31T04:45:19;92494.00;;;18.94;100.00
6204;BME280;3135;42.602;23.468;2023-07-31T04:47:44;92499.63;;;19.01;100.00
6204;BME280;3135;42.602;23.468;2023-07-31T04:50:10;92507.91;;;19.08;100.00
6204;BME280;3135;42.602;23.468;2023-07-31T04:52:35;92505.81;;;19.17;100.00
6204;BME280;3135;42.602;23.468;2023-07-31T04:55:01;92487.81;;;19.09;100.00
6204;BME280;3135;42.602;23.468;2023-07-31T04:57:26;92507.47;;;19.22;100.00
6204;BME280;3135;42.602;23.468;2023-07-31T04:59:52;92496.03;;;19.28;100.00
6204;BME280;3135;42.602;23.468;2023-07-31T05:02:17;92491.47;;;19.32;100.00
6204;BME280;3135;42.602;23.468;2023-07-31T05:04:43;92497.63;;;19.29;100.00
6204;BME280;3135;42.602;23.468;2023-07-31T05:07:08;92508.63;;;19.21;100.00
6204;BME280;3135;42.602;23.468;2023-07-31T05:09:34;92496.47;;;19.14;100.00
6204;BME280;3135;42.602;23.468;2023-07-31T05:11:59;92498.75;;;19.12;100.00
6204;BME280;3135;42.602;23.468;2023-07-31T05:14:25;92497.75;;;19.05;100.00
6204;BME280;3135;42.602;23.468;2023-07-31T05:16:51;92511.59;;;19.15;100.00
6204;BME280;3135;42.602;23.468;2023-07-31T05:19:17;92500.22;;;19.10;100.00
6204;BME280;3135;42.602;23.468;2023-07-31T05:21:42;92504.16;;;19.12;100.00
6204;BME280;3135;42.602;23.468;2023-07-31T05:24:08;92483.81;;;19.34;100.00
6204;BME280;3135;42.602;23.468;2023-07-31T05:26:33;92496.28;;;19.39;100.00
6204;BME280;3135;42.602;23.468;2023-07-31T05:28:58;92500.91;;;19.54;100.00
6204;BME280;3135;42.602;23.468;2023-07-31T05:31:24;60778.75;;;-145.89;100.00
6204;BME280;3135;42.602;23.468;2023-07-31T05:33:50;60778.75;;;-145.89;100.00
6204;BME280;3135;42.602;23.468;2023-07-31T05:36:16;60778.75;;;-145.89;100.00
6204;BME280;3135;42.602;23.468;2023-07-31T05:38:41;60778.75;;;-145.89;100.00
6204;BME280;3135;42.602;23.468;2023-07-31T05:41:09;60778.75;;;-145.89;100.00
6204;BME280;3135;42.602;23.468;2023-07-31T05:43:35;60778.75;;;-145.89;100.00
6204;BME280;3135;42.602;23.468;2023-07-31T05:46:00;60778.75;;;-145.89;100.00
6204;BME280;3135;42.602;23.468;2023-07-31T05:48:26;60778.75;;;-145.89;100.00
6204;BME280;3135;42.602;23.468;2023-07-31T05:50:52;60778.75;;;-145.89;100.00
6204;BME280;3135;42.602;23.468;2023-07-31T05:53:17;60778.75;;;-145.89;100.00
6204;BME280;3135;42.602;23.468;2023-07-31T05:55:43;60778.75;;;-145.89;100.00
6204;BME280;3135;42.602;23.468;2023-07-31T05:58:08;60778.75;;;-145.89;100.00
6204;BME280;3135;42.602;23.468;2023-07-31T06:00:34;60778.75;;;-145.89;100.00
6204;BME280;3135;42.602;23.468;2023-07-31T06:02:59;60778.75;;;-145.89;100.00
6204;BME280;3135;42.602;23.468;2023-07-31T06:05:24;60778.75;;;-145.89;100.00
6204;BME280;3135;42.602;23.468;2023-07-31T06:07:51;60778.75;;;-145.89;100.00
6204;BME280;3135;42.602;23.468;2023-07-31T06:10:16;60778.75;;;-145.89;100.00
6204;BME280;3135;42.602;23.468;2023-07-31T06:12:42;60778.75;;;-145.89;100.00
6204;BME280;3135;42.602;23.468;2023-07-31T06:15:07;60778.75;;;-145.89;100.00
6204;BME280;3135;42.602;23.468;2023-07-31T06:17:33;60778.75;;;-145.89;100.00
6204;BME280;3135;42.602;23.468;2023-07-31T06:19:58;60778.75;;;-145.89;100.00
6204;BME280;3135;42.602;23.468;2023-07-31T06:22:24;60778.75;;;-145.89;100.00
6204;BME280;3135;42.602;23.468;2023-07-31T06:24:49;60778.75;;;-145.89;100.00
6204;BME280;3135;42.602;23.468;2023-07-31T06:27:15;60778.75;;;-145.89;100.00
6204;BME280;3135;42.602;23.468;2023-07-31T06:29:41;60778.75;;;-145.89;100.00
6204;BME280;3135;42.602;23.468;2023-07-31T06:32:07;60778.75;;;-145.89;100.00
6204;BME280;3135;42.602;23.468;2023-07-31T06:34:32;60778.75;;;-145.89;100.00
6204;BME280;3135;42.602;23.468;2023-07-31T06:36:58;60778.75;;;-145.89;100.00
6204;BME280;3135;42.602;23.468;2023-07-31T06:39:23;60778.75;;;-145.89;100.00
6204;BME280;3135;42.602;23.468;2023-07-31T06:41:49;60778.75;;;-145.89;100.00
6204;BME280;3135;42.602;23.468;2023-07-31T06:44:14;60778.75;;;-145.89;100.00
6204;BME280;3135;42.602;23.468;2023-07-31T06:46:40;60778.75;;;-145.89;100.00
6204;BME280;3135;42.602;23.468;2023-07-31T06:49:05;60778.75;;;-145.89;100.00
6204;BME280;3135;42.602;23.468;2023-07-31T06:51:30;60778.75;;;-145.89;100.00
6204;BME280;3135;42.602;23.468;2023-07-31T06:53:59;60778.75;;;-145.89;100.00
6204;BME280;3135;42.602;23.468;2023-07-31T06:56:24;60778.75;;;-145.89;100.00
6204;BME280;3135;42.602;23.468;2023-07-31T06:58:51;60778.75;;;-145.89;100.00
6204;BME280;3135;42.602;23.468;2023-07-31T07:01:16;60778.75;;;-145.89;100.00
6204;BME280;3135;42.602;23.468;2023-07-31T07:03:42;60778.75;;;-145.89;100.00
6204;BME280;3135;42.602;23.468;2023-07-31T07:06:07;60778.75;;;-145.89;100.00
6204;BME280;3135;42.602;23.468;2023-07-31T07:08:32;60778.75;;;-145.89;100.00
6204;BME280;3135;42.602;23.468;2023-07-31T07:10:58;60778.75;;;-145.89;100.00
6204;BME280;3135;42.602;23.468;2023-07-31T07:13:23;60778.75;;;-145.89;100.00
6204;BME280;3135;42.602;23.468;2023-07-31T07:15:49;60778.75;;;-145.89;100.00
6204;BME280;3135;42.602;23.468;2023-07-31T07:18:15;60778.75;;;-145.89;100.00
6204;BME280;3135;42.602;23.468;2023-07-31T07:20:46;60778.75;;;-145.89;100.00
6204;BME280;3135;42.602;23.468;2023-07-31T07:23:12;60778.75;;;-145.89;100.00
6204;BME280;3135;42.602;23.468;2023-07-31T07:25:38;60778.75;;;-145.89;100.00
6204;BME280;3135;42.602;23.468;2023-07-31T07:28:03;60778.75;;;-145.89;100.00
6204;BME280;3135;42.602;23.468;2023-07-31T07:30:29;60778.75;;;-145.89;100.00
6204;BME280;3135;42.602;23.468;2023-07-31T07:32:54;60778.75;;;-145.89;100.00
6204;BME280;3135;42.602;23.468;2023-07-31T07:35:20;60778.75;;;-145.89;100.00
6204;BME280;3135;42.602;23.468;2023-07-31T07:37:48;60778.75;;;-145.89;100.00
6204;BME280;3135;42.602;23.468;2023-07-31T07:40:15;60778.75;;;-145.89;100.00
6204;BME280;3135;42.602;23.468;2023-07-31T07:42:40;60778.75;;;-145.89;100.00
6204;BME280;3135;42.602;23.468;2023-07-31T07:45:06;60778.75;;;-145.89;100.00
6204;BME280;3135;42.602;23.468;2023-07-31T07:47:32;60778.75;;;-145.89;100.00
6204;BME280;3135;42.602;23.468;2023-07-31T07:49:57;60778.75;;;-145.89;100.00
6204;BME280;3135;42.602;23.468;2023-07-31T07:52:22;60778.75;;;-145.89;100.00
6204;BME280;3135;42.602;23.468;2023-07-31T07:54:48;60778.75;;;-145.89;100.00
6204;BME280;3135;42.602;23.468;2023-07-31T07:57:13;60778.75;;;-145.89;100.00
6204;BME280;3135;42.602;23.468;2023-07-31T07:59:40;60778.75;;;-145.89;100.00
6204;BME280;3135;42.602;23.468;2023-07-31T08:02:05;60778.75;;;-145.89;100.00
6204;BME280;3135;42.602;23.468;2023-07-31T08:04:31;60778.75;;;-145.89;100.00
6204;BME280;3135;42.602;23.468;2023-07-31T08:06:56;60778.75;;;-145.89;100.00
6204;BME280;3135;42.602;23.468;2023-07-31T08:09:21;60778.75;;;-145.89;100.00
6204;BME280;3135;42.602;23.468;2023-07-31T08:11:47;60778.75;;;-145.89;100.00
6204;BME280;3135;42.602;23.468;2023-07-31T08:14:13;60778.75;;;-145.89;100.00
6204;BME280;3135;42.602;23.468;2023-07-31T08:16:38;60778.75;;;-145.89;100.00
6204;BME280;3135;42.602;23.468;2023-07-31T08:19:04;60778.75;;;-145.89;100.00
6204;BME280;3135;42.602;23.468;2023-07-31T08:21:29;60778.75;;;-145.89;100.00
6204;BME280;3135;42.602;23.468;2023-07-31T08:23:55;60778.75;;;-145.89;100.00
6204;BME280;3135;42.602;23.468;2023-07-31T08:26:20;60778.75;;;-145.89;100.00
6204;BME280;3135;42.602;23.468;2023-07-31T08:28:46;60778.75;;;-145.89;100.00
6204;BME280;3135;42.602;23.468;2023-07-31T08:31:12;60778.75;;;-145.89;100.00
6204;BME280;3135;42.602;23.468;2023-07-31T08:33:38;60778.75;;;-145.89;100.00
6204;BME280;3135;42.602;23.468;2023-07-31T08:36:04;60778.75;;;-145.89;100.00
6204;BME280;3135;42.602;23.468;2023-07-31T08:38:30;60778.75;;;-145.89;100.00
6204;BME280;3135;42.602;23.468;2023-07-31T08:40:58;60778.75;;;-145.89;100.00
6204;BME280;3135;42.602;23.468;2023-07-31T08:43:25;60778.75;;;-145.89;100.00
6204;BME280;3135;42.602;23.468;2023-07-31T08:45:51;60778.75;;;-145.89;100.00
6204;BME280;3135;42.602;23.468;2023-07-31T08:48:17;60778.75;;;-145.89;100.00
6204;BME280;3135;42.602;23.468;2023-07-31T08:50:44;60778.75;;;-145.89;100.00
6204;BME280;3135;42.602;23.468;2023-07-31T08:53:10;60778.75;;;-145.89;100.00
6204;BME280;3135;42.602;23.468;2023-07-31T08:55:36;60778.75;;;-145.89;100.00
6204;BME280;3135;42.602;23.468;2023-07-31T08:58:04;60778.75;;;-145.89;100.00
6204;BME280;3135;42.602;23.468;2023-07-31T09:00:31;60778.75;;;-145.89;100.00
6204;BME280;3135;42.602;23.468;2023-07-31T09:03:08;60778.75;;;-145.89;100.00
6204;BME280;3135;42.602;23.468;2023-07-31T09:05:35;60778.75;;;-145.89;100.00
6204;BME280;3135;42.602;23.468;2023-07-31T09:08:02;60778.75;;;-145.89;100.00
6204;BME280;3135;42.602;23.468;2023-07-31T09:10:29;60778.75;;;-145.89;100.00
6204;BME280;3135;42.602;23.468;2023-07-31T09:12:56;60778.75;;;-145.89;100.00
6204;BME280;3135;42.602;23.468;2023-07-31T09:15:23;60778.75;;;-145.89;100.00
6204;BME280;3135;42.602;23.468;2023-07-31T09:17:59;60778.75;;;-145.89;100.00
6204;BME280;3135;42.602;23.468;2023-07-31T09:20:25;60778.75;;;-145.89;100.00
6204;BME280;3135;42.602;23.468;2023-07-31T09:22:51;60778.75;;;-145.89;100.00
6204;BME280;3135;42.602;23.468;2023-07-31T09:25:20;60778.75;;;-145.89;100.00
6204;BME280;3135;42.602;23.468;2023-07-31T09:27:54;60778.75;;;-145.89;100.00
6204;BME280;3135;42.602;23.468;2023-07-31T09:30:20;60778.75;;;-145.89;100.00
6204;BME280;3135;42.602;23.468;2023-07-31T09:32:48;60778.75;;;-145.89;100.00
6204;BME280;3135;42.602;23.468;2023-07-31T09:35:19;60778.75;;;-145.89;100.00
6204;BME280;3135;42.602;23.468;2023-07-31T09:37:54;60778.75;;;-145.89;100.00
6204;BME280;3135;42.602;23.468;2023-07-31T09:40:48;60778.75;;;-145.89;100.00
6204;BME280;3135;42.602;23.468;2023-07-31T09:43:19;60778.75;;;-145.89;100.00
6204;BME280;3135;42.602;23.468;2023-07-31T09:45:45;60778.75;;;-145.89;100.00
6204;BME280;3135;42.602;23.468;2023-07-31T09:48:13;60778.75;;;-145.89;100.00
6204;BME280;3135;42.602;23.468;2023-07-31T09:50:43;60778.75;;;-145.89;100.00
6204;BME280;3135;42.602;23.468;2023-07-31T09:53:09;60778.75;;;-145.89;100.00
6204;BME280;3135;42.602;23.468;2023-07-31T09:55:35;60778.75;;;-145.89;100.00
6204;BME280;3135;42.602;23.468;2023-07-31T09:58:07;60778.75;;;-145.89;100.00
6204;BME280;3135;42.602;23.468;2023-07-31T10:00:34;60778.75;;;-145.89;100.00
6204;BME280;3135;42.602;23.468;2023-07-31T10:03:10;60778.75;;;-145.89;100.00
6204;BME280;3135;42.602;23.468;2023-07-31T10:05:36;60778.75;;;-145.89;100.00
6204;BME280;3135;42.602;23.468;2023-07-31T10:08:03;60778.75;;;-145.89;100.00
6204;BME280;3135;42.602;23.468;2023-07-31T10:10:31;60778.75;;;-145.89;100.00
6204;BME280;3135;42.602;23.468;2023-07-31T10:12:59;60778.75;;;-145.89;100.00
6204;BME280;3135;42.602;23.468;2023-07-31T10:15:25;60778.75;;;-145.89;100.00
6204;BME280;3135;42.602;23.468;2023-07-31T10:17:51;60778.75;;;-145.89;100.00
6204;BME280;3135;42.602;23.468;2023-07-31T10:20:17;60778.75;;;-145.89;100.00
6204;BME280;3135;42.602;23.468;2023-07-31T10:22:43;60778.75;;;-145.89;100.00
6204;BME280;3135;42.602;23.468;2023-07-31T10:25:11;60778.75;;;-145.89;100.00
6204;BME280;3135;42.602;23.468;2023-07-31T10:27:38;60778.75;;;-145.89;100.00
6204;BME280;3135;42.602;23.468;2023-07-31T10:30:06;60778.75;;;-145.89;100.00
6204;BME280;3135;42.602;23.468;2023-07-31T10:32:33;60778.75;;;-145.89;100.00
6204;BME280;3135;42.602;23.468;2023-07-31T10:34:59;60778.75;;;-145.89;100.00
6204;BME280;3135;42.602;23.468;2023-07-31T10:37:28;60778.75;;;-145.89;100.00
6204;BME280;3135;42.602;23.468;2023-07-31T10:40:05;60778.75;;;-145.89;100.00
6204;BME280;3135;42.602;23.468;2023-07-31T10:42:36;60778.75;;;-145.89;100.00
6204;BME280;3135;42.602;23.468;2023-07-31T10:45:09;60778.75;;;-145.89;100.00
6204;BME280;3135;42.602;23.468;2023-07-31T10:47:42;60778.75;;;-145.89;100.00
6204;BME280;3135;42.602;23.468;2023-07-31T10:52:50;60778.75;;;-145.89;100.00
6204;BME280;3135;42.602;23.468;2023-07-31T10:57:48;60778.75;;;-145.89;100.00
6204;BME280;3135;42.602;23.468;2023-07-31T11:00:25;60778.75;;;-145.89;100.00
6204;BME280;3135;42.602;23.468;2023-07-31T11:03:04;60778.75;;;-145.89;100.00
6204;BME280;3135;42.602;23.468;2023-07-31T11:06:02;60778.75;;;-145.89;100.00
6204;BME280;3135;42.602;23.468;2023-07-31T11:08:36;60778.75;;;-145.89;100.00
6204;BME280;3135;42.602;23.468;2023-07-31T11:13:33;60778.75;;;-145.89;100.00
6204;BME280;3135;42.602;23.468;2023-07-31T11:15:59;60778.75;;;-145.89;100.00
6204;BME280;3135;42.602;23.468;2023-07-31T11:18:26;60778.75;;;-145.89;100.00
6204;BME280;3135;42.602;23.468;2023-07-31T11:20:52;60778.75;;;-145.89;100.00
6204;BME280;3135;42.602;23.468;2023-07-31T11:23:18;60778.75;;;-145.89;100.00
6204;BME280;3135;42.602;23.468;2023-07-31T11:25:44;60778.75;;;-145.89;100.00
6204;BME280;3135;42.602;23.468;2023-07-31T11:28:12;60778.75;;;-145.89;100.00
6204;BME280;3135;42.602;23.468;2023-07-31T11:30:38;60778.75;;;-145.89;100.00
6204;BME280;3135;42.602;23.468;2023-07-31T11:33:06;60778.75;;;-145.89;100.00
6204;BME280;3135;42.602;23.468;2023-07-31T11:35:36;60778.75;;;-145.89;100.00
6204;BME280;3135;42.602;23.468;2023-07-31T11:38:02;60778.75;;;-145.89;100.00
6204;BME280;3135;42.602;23.468;2023-07-31T11:40:28;60778.75;;;-145.89;100.00
6204;BME280;3135;42.602;23.468;2023-07-31T11:43:04;60778.75;;;-145.89;100.00
6204;BME280;3135;42.602;23.468;2023-07-31T11:45:30;60778.75;;;-145.89;100.00
6204;BME280;3135;42.602;23.468;2023-07-31T11:47:56;60778.75;;;-145.89;100.00
6204;BME280;3135;42.602;23.468;2023-07-31T11:50:23;60778.75;;;-145.89;100.00
6204;BME280;3135;42.602;23.468;2023-07-31T11:52:53;60778.75;;;-145.89;100.00
6204;BME280;3135;42.602;23.468;2023-07-31T11:55:21;60778.75;;;-145.89;100.00
6204;BME280;3135;42.602;23.468;2023-07-31T11:57:47;60778.75;;;-145.89;100.00
6204;BME280;3135;42.602;23.468;2023-07-31T12:00:13;60778.75;;;-145.89;100.00
6204;BME280;3135;42.602;23.468;2023-07-31T12:02:39;60778.75;;;-145.89;100.00
6204;BME280;3135;42.602;23.468;2023-07-31T12:05:10;60778.75;;;-145.89;100.00
6204;BME280;3135;42.602;23.468;2023-07-31T12:07:54;60778.75;;;-145.89;100.00
6204;BME280;3135;42.602;23.468;2023-07-31T12:10:29;60778.75;;;-145.89;100.00
6204;BME280;3135;42.602;23.468;2023-07-31T12:12:59;60778.75;;;-145.89;100.00
6204;BME280;3135;42.602;23.468;2023-07-31T12:15:42;60778.75;;;-145.89;100.00
6204;BME280;3135;42.602;23.468;2023-07-31T12:18:13;60778.75;;;-145.89;100.00
6204;BME280;3135;42.602;23.468;2023-07-31T12:20:43;60778.75;;;-145.89;100.00
6204;BME280;3135;42.602;23.468;2023-07-31T12:23:20;60778.75;;;-145.89;100.00
6204;BME280;3135;42.602;23.468;2023-07-31T12:26:14;60778.75;;;-145.89;100.00
6204;BME280;3135;42.602;23.468;2023-07-31T12:28:47;60778.75;;;-145.89;100.00
6204;BME280;3135;42.602;23.468;2023-07-31T12:31:18;60778.75;;;-145.89;100.00
6204;BME280;3135;42.602;23.468;2023-07-31T12:33:45;60778.75;;;-145.89;100.00
6204;BME280;3135;42.602;23.468;2023-07-31T12:36:22;60778.75;;;-145.89;100.00
6204;BME280;3135;42.602;23.468;2023-07-31T12:38:48;60778.75;;;-145.89;100.00
6204;BME280;3135;42.602;23.468;2023-07-31T12:41:14;60778.75;;;-145.89;100.00
6204;BME280;3135;42.602;23.468;2023-07-31T12:43:41;60778.75;;;-145.89;100.00
6204;BME280;3135;42.602;23.468;2023-07-31T12:46:07;60778.75;;;-145.89;100.00
6204;BME280;3135;42.602;23.468;2023-07-31T12:48:33;60778.75;;;-145.89;100.00
6204;BME280;3135;42.602;23.468;2023-07-31T12:50:59;60778.75;;;-145.89;100.00
6204;BME280;3135;42.602;23.468;2023-07-31T12:53:25;60778.75;;;-145.89;100.00
6204;BME280;3135;42.602;23.468;2023-07-31T12:55:50;60778.75;;;-145.89;100.00